Aérodrome :







RETROUVEZ-NOUS SUR...

 
LOGIN :

S'inscrire | Disclaimer

   EN    FR    IT 

 









Légende :    VFR   VFR Marginal   IFR   IFR Intensif   IFR Très Intensif
Visi : 
Plafond : 
>= 8 km
>= 3000ft
5 à 8 km
1000 à 3000 ft
1500m à 5 km
500 à 1000 ft
800 à 1500m
200 à 500 ft
< 800m
< 200 ft
Symboles :   Orages  Brouillard  Fortes neiges  Fortes précipitations  Vent > 20 kt






- Altitude de l'aérodrome : 121 ft
- Code IATA : YBX


CYBX - Lourdes De Blanc Sablon

DERNIER METAR :
  • 140100Z 31011KT 15SM FEW025 M17/M24 A3052 RMK SC1 SLP340

METARs EXPIRÉS :
  • 140000Z 29011G19KT 15SM FEW025 M16/M23 A3052 RMK SC1 SLP341
  • 132300Z 29013KT 15SM FEW025 M16/M22 A3051 RMK SC1 SLP338

TAF TAF CYBX
Valide du 13 à 20h jusqu'au 14 à 08h UTC


131938Z 1320/1408 28015G25KT P6SM FEW025
BECMG 1401/1403 32010KT RMK NXT FCST BY 140200Z



MET'MAP, la Météo Aéronautique d'un coup d'oeil ! - Copyright ORBIFLY Décembre 2007 - Disclaimer

ORBIFLY MET'MAP TEAM :

Programmation & Développement : Alexandra Zaïnal
Sur une idée originale de : Baudouin d'Aumeries
Assistance à la programmation : Marc-Olivier Méhu
Soutien technique & logistique : Manuel Goepfert

Contact : metmap@orbifly.com




SOURCES & CREDITS :

   NOAA